International TAF

Brunei, China, Hong Kong, Malaysia, Philippines, Taiwan

The availability of aerodrome forecasts from overseas locations is dependent on the regular international exchange of data. Some locations may at times be absent. If this problem persists, please advise webav@bom.gov.au

 back to top

ZSPD 23/10/2018 UTC

TAF ZSPD 230310Z 2306/2406 34005MPS 5000 HZ SCT020 TX22/2306Z
TN15/2321Z BECMG 2307/2308 04004MPS

WIDD 23/10/2018 UTC

TAF WIDD 230500Z 2306/2406 07008KT 9999 SCT014
TEMPO 2307/2310 5000 TSRA FEW014CB SCT015

WAMM 23/10/2018 UTC

TAF WAMM 230500Z 2306/2412 27008KT 9999 FEW024
BECMG 2310/2312 VRB02KT
BECMG 2400/2402 28008KT SCT022

WBSB 23/10/2018 UTC

TAF WBSB 230500Z 2306/2412 32008KT 9999 SCT015 FEW016CB
TEMPO 2308/2310 7000 -SHRA
BECMG 2312/2314 20004KT

WBKK 23/10/2018 UTC

TAF WBKK 230500Z 2306/2406 30005KT 9999 FEW014
TEMPO 2308/2312 4000 TSRA FEW013 FEW016CB SCT035
BECMG 2313/2315 11005KT

WBGG 23/10/2018 UTC

TAF WBGG 230500Z 2306/2406 VRB03KT 9999 FEW020
TEMPO 2307/2310 02010KT 4000 TSRA FEW015CB SCT020

VHHH 23/10/2018 UTC

TAF VHHH 230500Z 2306/2412 02005KT 8000 FEW025 SCT040 TX27/2306Z
TX28/2406Z TN23/2322Z TEMPO 2306/2309 30010KT BECMG 2309/2311
08010KT TEMPO 2311/2315 VRB05KT TEMPO 2318/2401 4000 BR -RA
TEMPO 2403/2409 32010KT

VMMC 23/10/2018 UTC

TAF VMMC 230500Z 2306/2412 03008KT 8000 FEW020 SCT040
TEMPO 2320/2403 2500 -RA BR
BECMG 2404/2406 09010KT

ZGSZ 23/10/2018 UTC

TAF ZGSZ 230302Z 2306/2406 06004MPS 6000 BKN040 TX29/2307Z
TN22/2322Z

RCTP 23/10/2018 UTC

TAF RCTP 230500Z 2306/2412 03012KT 9999 FEW016 BKN032
TEMPO 2306/2312 03017KT FEW008 BKN018
TEMPO 2318/2324 07007KT FEW012 BKN022
TEMPO 2401/2408 03018KT

RCKH 23/10/2018 UTC

TAF RCKH 230500Z 2306/2412 29007KT 7000 FEW016 BKN032
BECMG 2310/2312 35005KT
TEMPO 2318/2324 04005KT 5000 BR
TEMPO 2400/2403 07005KT 3800 HZ
BECMG 2403/2405 24007KT

ZGGG 23/10/2018 UTC

TAF ZGGG 230301Z 2306/2406 02004MPS 8000 BKN033 TX25/2307Z
TN21/2322Z

ZBAA 23/10/2018 UTC

TAF ZBAA 230330Z 2306/2406 20004MPS CAVOK TX20/2307Z TN04/2321Z

ZSSS 23/10/2018 UTC

TAF ZSSS 230313Z 2306/2406 36005MPS 6000 SCT020 TX22/2306Z
TN16/2321Z
BECMG 2309/2310 06004MPS

ZBTJ 23/10/2018 UTC

TAF ZBTJ 230238Z 2306/2406 23004MPS CAVOK TX20/2307Z TN09/2321Z

ZBYN 23/10/2018 UTC

TAF ZBYN 230312Z 2306/2406 21004MPS 6000 NSC TX17/2307Z TNM01/22Z

ZSHC 23/10/2018 UTC

TAF ZSHC 230304Z 2306/2406 03003MPS 3000 BR FEW025 TX23/2405Z
TN15/2321Z

ZSOF 23/10/2018 UTC

TAF ZSOF 230302Z 230606 16003MPS 4000 BR NSC TX24/07Z TN12/21Z

ZWWW 23/10/2018 UTC

TAF ZWWW 230323Z 2306/2406 36004MPS CAVOK TX14/2309Z TN07/2323Z
BECMG 2312/2313 24004MPS 9999 BKN040 BECMG 2403/2404 36004MPS

ZYTL 23/10/2018 UTC

TAF ZYTL 230311Z 2306/2406 32006G12MPS CAVOK TX18/2306Z TN06/2320Z
BECMG 2309/2310 26004MPS

RPLL 23/10/2018 UTC

TAF RPLL 230500Z 2306/2412 10006KT 9999 FEW025 TX33/2307Z TN25/2322Z
TEMPO 2306/2312 11010KT FEW023CB FEW025 SCT100
TEMPO 2312/2318 10008KT FEW023

RPVM 23/10/2018 UTC

TAF RPVM 230500Z 2306/2412 01005KT 9999 FEW020 BKN300
TEMPO 2306/2312 02007KT 9000 -TSRA FEW018CB FEW020 OVC090

//END PART 01//

RPMZ 23/10/2018 UTC

TAF RPMZ 230500Z 2306/2406 27005KT 9999 FEW018 SCT090 BKN300
TEMPO 2306/2312 28010KT 9000 -SHRA FEW017CB FEW018 BKN090

Australian International

The availability of aerodrome forecasts from overseas locations is dependent on the regular international exchange of data. Some locations may at times be absent. If this problem persists, please advise webav@bom.gov.au

 back to top

YMML 23/10/2018 UTC

TAF YMML 230508Z 2306/2412
18012KT 9999 SCT030 BKN040
FM231200 25006KT 9999 SCT035
FM232200 17010KT 9999 SCT040
RMK
T 16 12 10 08 Q 1015 1019 1021 1021

YSSY 23/10/2018 UTC

TAF YSSY 230502Z 2306/2412
03014KT CAVOK
FM231400 19020G35KT 9999 SCT010 BKN020
FM232000 18020G30KT 9999 BKN025
FM241000 15012KT 9999 SCT025
TEMPO 2314/2320 BKN010
RMK FM231400 MOD TURB BLW 5000FT TILL241000
T 25 21 20 18 Q 1010 1011 1011 1013

YBBN 23/10/2018 UTC

TAF YBBN 230503Z 2306/2412
04012KT 9999 FEW035
FM231400 30006KT 9999 MIFG FEW020
FM232200 34008KT 9999 FEW025
FM240200 03012KT CAVOK
FM241000 13005KT 9999 FEW020 SCT045
RMK
T 25 22 21 19 Q 1014 1015 1016 1015

YSCB 23/10/2018 UTC

TAF AMD YSCB 230517Z 2306/2406
30014KT CAVOK
FM231000 03005KT CAVOK
FM231300 12006KT 9999 SCT020
BECMG 2320/2322 09010KT 9999 SCT035
TEMPO 2314/2321 9999 BKN020
RMK
T 27 20 15 11 Q 1011 1013 1014 1016

YBCS 23/10/2018 UTC

TAF YBCS 230501Z 2306/2406
04010KT 9999 FEW030
FM230800 16006KT 9999 FEW025 SCT035
FM240000 09010KT 9999 FEW035
RMK
T 28 26 25 24 Q 1011 1013 1014 1014

YBAS 23/10/2018 UTC

TAF YBAS 230505Z 2306/2406
11010KT CAVOK
FM231200 11006KT CAVOK
FM232300 07011KT CAVOK
RMK
T 38 34 27 23 Q 1010 1011 1014 1015

YBMA 23/10/2018 UTC

TAF YBMA 230432Z 2306/2318
13008KT CAVOK
RMK
T 39 33 25 22 Q 1008 1009 1012 1011

YPAD 23/10/2018 UTC

TAF YPAD 230504Z 2306/2412
22014KT 9999 FEW040
FM230900 15008KT CAVOK
FM231800 10005KT CAVOK
FM240000 06008KT CAVOK
FM240400 23010KT CAVOK
FM241000 12006KT CAVOK
RMK
T 17 14 12 11 Q 1019 1021 1022 1022

YPDN 23/10/2018 UTC

TAF YPDN 230507Z 2306/2412
32008KT 9999 FEW045
FM231200 30005KT 9999 FEW020
FM240300 29012KT 9999 FEW040
RMK
T 33 31 29 29 Q 1008 1009 1010 1010

YPTN 23/10/2018 UTC

TAF YPTN 230524Z 2306/2406
33005KT CAVOK
RMK
T 37 34 29 28 Q 1006 1007 1008 1009

YPPH 23/10/2018 UTC

TAF YPPH 230510Z 2306/2412
25010KT CAVOK
FM231500 VRB03KT 9999 SCT030
FM240000 05010KT 9999 SCT030
BECMG 2402/2404 24010KT 9999 -SHRA FEW025 BKN035
FM240800 19010KT 9999 FEW025
INTER 2402/2407 4000 SHRA BKN016
RMK
T 20 18 15 13 Q 1016 1016 1016 1015

YPLM 23/10/2018 UTC

TAF AMD YPLM 230708Z 2307/2406
25016KT CAVOK
FM231600 19012KT CAVOK
FM240300 23016KT CAVOK
RMK
T 33 26 21 19 Q 1011 1011 1013 1012

YCAR 23/10/2018 UTC

TAF AMD YCAR 230246Z 2302/2312
20020KT CAVOK
RMK
T 23 25 24 21 Q 1016 1014 1013 1014

YPCC 23/10/2018 UTC

TAF YPCC 230504Z 2306/2406
13012KT 9999 SCT025
RMK
T 28 27 26 26 Q 1015 1013 1014 1016

YPPD 23/10/2018 UTC

TAF YPPD 230503Z 2306/2406
30017KT CAVOK
FM231200 25010KT CAVOK
FM240300 29020KT CAVOK
RMK
T 37 33 28 26 Q 1008 1007 1009 1010

YBTL 23/10/2018 UTC

TAF YBTL 230422Z 2306/2406
05015KT 9999 FEW035
FM230900 07008KT 9999 SCT020
FM240100 05015KT 9999 FEW035
RMK
T 28 26 25 25 Q 1011 1013 1015 1014

YMHB 23/10/2018 UTC

TAF YMHB 230520Z 2306/2406
30015G25KT 9999 SCT055
FM230800 27012KT CAVOK
FM231200 31010KT CAVOK
FM232300 23012KT CAVOK
FM240200 16012KT CAVOK
RMK
T 15 12 10 08 Q 1009 1012 1015 1016

YPXM 23/10/2018 UTC

TAF YPXM 230504Z 2306/2406
14010KT 9999 BKN013
RMK
T 26 27 27 26 Q 1016 1015 1015 1016

New Zealand

The availability of aerodrome forecasts from overseas locations is dependent on the regular international exchange of data. Some locations may at times be absent. If this problem persists, please advise webav@bom.gov.au

 back to top

NZAA 23/10/2018 UTC

TAF NZAA 230503Z 2306/2406 24010KT 9999 SCT020
FM230800 18005KT 9999 BKN020
PROB30 2312/2321 BKN010
BECMG 2400/2402 25010KT

NZWN 23/10/2018 UTC

TAF NZWN 230503Z 2306/2406 36015G25KT 9999 BKN020
BECMG 2308/2310 36015KT BKN013
BECMG 2318/2320 36020G30KT
BECMG 2322/2400 BKN020
BECMG 2400/2402 36025G40KT

NZCH 23/10/2018 UTC

TAF AMD NZCH 230600Z 2305/2406 07008KT 9999 FEW014
BECMG 2307/2309 BKN002
BECMG 2319/2321 BKN006
BECMG 2321/2323 FEW014

YLHI 23/10/2018 UTC

TAF YLHI 230522Z 2306/2406
05014KT 9999 -SHRA SCT010 BKN020
FM231400 05005KT 9999 -SHRA SCT010 BKN020
TEMPO 2306/2312 3000 SHRA BKN010
INTER 2312/2324 4000 SHRA BKN008
RMK
T 21 19 19 19 Q 1016 1017 1016 1015

YSNF 23/10/2018 UTC

TAF AMD YSNF 230511Z 2305/2406
07014KT 9999 SCT015 SCT020
FM240000 06014KT 9999 SCT020
TEMPO 2305/2324 9999 BKN012
RMK
T 20 18 18 17 Q 1019 1020 1021 1020

Indonesia, Malaysia, Myanmar, Singapore, Thailand, Vietnam

The availability of aerodrome forecasts from overseas locations is dependent on the regular international exchange of data. Some locations may at times be absent. If this problem persists, please advise webav@bom.gov.au

 back to top

WADA

TAF not available.

WAAA 23/10/2018 UTC

TAF WAAA 230500Z 2306/2412 25010KT 9000 SCT019
TEMPO 2307/2310 5000 -TSRA FEW017CB SCT018
BECMG 2311/2313 10004KT 8000 FEW019
BECMG 2321/2323 18005KT 9999

WIII 23/10/2018 UTC

TAF WIII 230500Z 2306/2412 29006KT 7000 SCT020 TEMPO 2308/2311 4500
-TSRA FEW018CB BKN020 BECMG 2318/2320 18005KT 4000

WIHH 23/10/2018 UTC

TAF WIHH 230500Z 2306/2406 06008KT 6000 SCT020 TEMPO 2309/2312 32010KT 4000 -TSRA
FEW016CB BKN017 BECMG 2313/2315 22005KT 5000 HZ SCT018

WIMM 23/10/2018 UTC

TAF WIMM 230500Z 2306/2406 04008KT 8000 SCT016
TEMPO 2306/2309 -RA
BECMG 2312/2314 VRB04KT 4500 HZ

WIPP 23/10/2018 UTC

TAF WIPP 230500Z 2306/2406 13008KT 9999 SCT012
TEMPO 2308/2312 5000 RA FEW013CB
TEMPO 2319/2323 3000 BR

WIKD

TAF not available.

WARR 23/10/2018 UTC

TAF WARR 230500Z 2306/2406 10010KT 9999 FEW020
BECMG 2315/2317 26005KT 4000 HZ
BECMG 2322/2400 VRB03KT 7000 NSW
BECMG 2401/2403 09010KT 9999

WADD 23/10/2018 UTC

TAF WADD 230500Z 2306/2406 23010KT 9999 SCT017
BECMG 2310/2312 15010KT
BECMG 2317/2319 VRB05KT

WRRA

TAF not available.

WALL 23/10/2018 UTC

TAF WALL 230500Z 2306/2412 19006KT 9999 FEW020 BECMG 2314/2316 24005KT 9000 SCT018 PROB40
TEMPO 2319/2322 7000 -RA FEW018CB SCT018

WSSS 23/10/2018 UTC

TAF AMD WSSS 230800Z 2308/2412 22007KT 9999 FEW018CB SCT020
PROB30 TEMPO 2402/2406 3000 TSRA FEW012CB BKN015

WSAP 23/10/2018 UTC

TAF AMD WSAP 230800Z 2308/2412 22007KT 9999 FEW018CB SCT020
PROB30 TEMPO 2402/2406 3000 TSRA FEW012CB BKN015

WMKK 23/10/2018 UTC

TAF AMD WMKK 230605Z 2306/2412 24005G15KT 3000 TSRA FEW010
FEW017CB TEMPO 2308/2312 06005KT 6000 -TSRA FEW017CB SCT020
BECMG 2313/2314 VRB02KT 9999 NSW FEW020

WMSA 23/10/2018 UTC

TAF AMD WMSA 230618Z 2306/2406 28008G18KT 4000 TSRA FEW005 OVC026
TEMPO 2308/2309 21005KT 6000 -TSRA FEW010 FEW017CB SCT020
BECMG 2311/2312 VRB02KT 9999 NSW FEW020

WMKP 23/10/2018 UTC

TAF AMD WMKP 230607Z 2306/2406 22008KT 9000 FEW020 SCT140 BKN280
TEMPO 2306/2311 3000 +TSRA FEW010 FEW017CB
BECMG 2311/2313 VRB03KT 8000 FEW025

WMKJ 23/10/2018 UTC

TAF AMD WMKJ 230544Z 2306/2406 12007G17KT 2500 TSRA FEW010
FEW017CB BECMG 2308/2310 06005KT 9999 NSW FEW018
BECMG 2312/2314 VRB02KT FEW022

WMKD 23/10/2018 UTC

TAF AMD WMKD 230645Z 2307/2406 VRB05KT 9999 FEW020
PROB30 TEMPO 2307/2312 7000 -TSRA FEW017CB
PROB30 TEMPO 2315/2318 7000 -TSRA FEW010 FEW017CB

WMKB 23/10/2018 UTC

TAF WMKB 230500Z 2306/2406 30010KT 7000 FEW017CB
BECMG 2313/2315 07005KT
TEMPO 2315/2319 5000 TSRA FEW015CB SCT018

VTBD 23/10/2018 UTC

TAF VTBD 230500Z 2306/2412 33005KT 9999 FEW020
BECMG 2310/2312 20008KT
TEMPO 2314/2320 VRB15KT 6000 -TSRA FEW018CB SCT030
BECMG 2322/2324 34005KT
BECMG 2403/2405 12008KT

VTBS 23/10/2018 UTC

TAF VTBS 230500Z 2306/2412 03005KT 9999 FEW020
BECMG 2310/2312 19008KT
TEMPO 2314/2320 VRB15KT 6000 -TSRA FEW018CB SCT030
BECMG 2322/2324 01005KT
BECMG 2403/2405 14008KT

VTBU 23/10/2018 UTC

TAF VTBU 230500Z 2306/2406 16008KT 9999 FEW020
TEMPO 2306/2312 FEW020CB
BECMG 2312/2314 12006KT 8000

VTCC 23/10/2018 UTC

TAF VTCC 230500Z 2306/2412 07005KT 9999 BKN030
TEMPO 2308/2315 VRB15G25KT 5000 TSRA FEW025CB BKN030

VTSP 23/10/2018 UTC

TAF AMD VTSP 230814Z 2306/2412 28008KT 9999 FEW020 SCT100
TEMPO 2306/2310 VRB10G20KT 5000 TSRA FEW018CB SCT020 BKN100
BECMG 2314/2316 VRB02KT 8000
TEMPO 2320/2324 VRB10G20KT 5000 TSRA FEW018CB SCT020 BKN100
BECMG 2405/2407 28008KT 9999

VTSS 23/10/2018 UTC

TAF VTSS 230500Z 2306/2406 24008KT 9999 SCT020
TEMPO 2306/2312 VRB10G20KT 5000 TSRA FEW016CB
SCT018 BKN100 TEMPO 2312/2316 5000 RA SCT015 BKN100
PROB30 TEMPO 2321/2403 5000 RA SCT015 BKN100

VVTS 23/10/2018 UTC

TAF VVTS 230500Z 2306/2412 09008KT 9999 SCT017 SCT040
TEMPO 2307/2312 3000 TSRA BKN013 SCT015CB
BECMG 2321/2322 VRB02KT 3000 BR
BECMG 2400/2401 06010KT 9999 NSW
TEMPO 2407/2411 TS BKN015 FEW017CB

VDPP 23/10/2018 UTC

TAF VDPP 230500Z 2306/2324 04006KT 9999 SCT017
TEMPO 2306/2311 SCT015 FEW017CB

VVNB 23/10/2018 UTC

TAF VVNB 230500Z 2306/2406 09006KT 9000 SCT013 BKN040
TEMPO 2308/2310 4000 RA BKN009 FEW023TCU OVC035

VYYY 23/10/2018 UTC

TAF VYYY 230500Z 2306/2406 16006KT 7000 BKN018 FEW020CB BKN100
TEMPO 2306/2312 18008KT 4000 -RA BKN015 FEW018CB OVC090

South America

The availability of aerodrome forecasts from overseas locations is dependent on the regular international exchange of data. Some locations may at times be absent. If this problem persists, please advise webav@bom.gov.au

 back to top

SAEZ 23/10/2018 UTC

TAF SAEZ 230500Z 2306/2406 13010KT CAVOK TX20/2318Z TN09/2310Z
BECMG 2311/2313 11010G20KT
BECMG 2316/2318 09010KT 9999 SCT030
BECMG 2400/2402 SCT020 BKN030

SAVC 23/10/2018 UTC

TAF SAVC 230500Z 2306/2406 VRB03KT CAVOK
TX15/2318Z TN02/2311Z
BECMG 2315/2317 05015KT FEW030
BECMG 2322/2401 VRB03KT SCT030 SCT090

SCIE 23/10/2018 UTC

TAF SCIE 230410Z 2306/2406 20004KT CAVOK TX15/2318Z TN09/2311Z TEMPO
2308/2314 15004KT FEW015 BKN090 BECMG 2315/2317 22008KT
FEW020 BKN070 TEMPO 2320/2400 29008KT 6000 -SHRA SCT008
BKN015 OVC050 BECMG 2401/2403 01010KT 4000 -RA SCT005
BKN012 OVC040

SACO 23/10/2018 UTC

TAF SACO 230500Z 2306/2406 18005KT 1500 DZ BR BKN005 BKN010
TX23/2319Z TN14/2310Z TEMPO 2308/2311 16003KT 0200 BCFG
BKN004 BKN012 BECMG 2311/2314 09005KT 8000 BKN030

SCIP 23/10/2018 UTC

TAF SCIP 230424Z 2306/2406 31008KT 9999 SCT020
TN19/2312Z TX24/2320Z
PROB30 TEMPO 2311/2315 33013KT 7000 -SHRA BKN015
BECMG 2316/2318 33013KT
PROB30 TEMPO 2320/2401 33018KT 7000 -SHRA BKN015
BECMG 2402/2404 32008KT

SAZM 23/10/2018 UTC

TAF SAZM 230500Z 2306/2406 18015KT 9999 BKN015 TX13/2318Z
TN08/2309Z
BECMG 2311/2313 SCT030
BECMG 2316/2319 13015KT

SAME 23/10/2018 UTC

TAF SAME 230500Z 2306/2406 14005KT 9999 BKN040 TX23/2320Z
TN10/2310Z

SUMU 23/10/2018 UTC

TAF SUMU 230515Z 2306/2406 16015KT CAVOK TX16/2318Z TN11/2310Z
BECMG 2400/2402 10010KT

SAZN 23/10/2018 UTC

TAF SAZN 230500Z 2306/2406 13015KT CAVOK
TX13/2318Z TN09/2309Z
BECMG 2309/2312 9999 -RA BKN030 OVC100
BECMG 2313/2315 7000 RA BKN020 OVC040
TEMPO 2315/2319 3000 +RA
BECMG 2320/2322 9999 -RA BKN015 OVC030

SCTE 23/10/2018 UTC

TAF SCTE 230408Z 2306/2406 23007KT CAVOK TN02/2311Z TX17/2318Z
TEMPO 2308/2312 VRB02KT 0500 FG BKN003
BECMG 2317/2319 16007KT BKN080
BECMG 2323/2401 VRB03KT SCT030 OVC050
TEMPO 2402/2406 8000 -RA BKN020 OVC045

SCCI 23/10/2018 UTC

TAF SCCI 230422Z 2306/2406 22007KT CAVOK TN00/2310Z TX10/2320Z
BECMG 2306/2308 9999 FEW020
TEMPO 2306/2312 FEW008 SCT014
BECMG 2313/2315 FEW035
TEMPO 2315/2321 VRB04KT
BECMG 2320/2322 SCT045
TEMPO 2323/2401 16012KT

SAWG 23/10/2018 UTC

TAF SAWG 230500Z 2306/2406 27005KT CAVOK TX14/2318Z TN02/2311Z
BECMG 2323/2402 07005KT BKN030

SAAR 23/10/2018 UTC

TAF SAAR 230500Z 2306/2406 16005KT CAVOK TX23/2318Z TN12/2310Z
BECMG 2312/2314 09015KT

SAZS 23/10/2018 UTC

TAF SAZS 230500Z 2306/2406 16010KT CAVOK TX12/2318Z TN03/2309Z
BECMG 2311/2313 05015KT BKN030
BECMG 2321/2323 07005KT SCT040 BKN100

SCEL 23/10/2018 UTC

TAF SCEL 230411Z 2306/2406 16005KT 9999 FEW180 TX22/2319Z TN08/2311Z
TEMPO 2309/2314 VRB02KT 7000 FEW180 BKN200 BECMG 2315/2317
18008KT SCT140 BKN180 BECMG 2318/2320 20010KT BECMG
2400/2402 16005KT BKN150

SAWH 23/10/2018 UTC

TAF SAWH 230500Z 2306/2406 23015KT CAVOK TX10/2318Z TN02/2310Z
BECMG 2313/2315 25020KT SCT030
BECMG 2323/2401 25015KT

Guam, Japan, Korea

The availability of aerodrome forecasts from overseas locations is dependent on the regular international exchange of data. Some locations may at times be absent. If this problem persists, please advise webav@bom.gov.au

 back to top

PGUA 23/10/2018 UTC

TAF PGUA 230200Z 2302/2408 05009KT 9999 SCT015 SCT160 QNH2967INS
TEMPO 2302/2304 05012G18KT 8000 -SHRA BKN014
BECMG 2311/2312 04015KT 9999 SCT015 BKN150 QNH2964INS
BECMG 2319/2320 01010G22KT 9999 SCT020 BKN150 QNH2963INS
BECMG 2402/2403 01020G25KT 8000 -SHRA VCTS BKN014CB
QNH2955INS TX32/2400Z TN25/2317Z

PGUM 23/10/2018 UTC

TAF PGUM 230535Z 2306/2412 05011KT P6SM VCSH SCT024
FM231300 05011KT P6SM VCSH FEW018 SCT025 BKN120
FM240100 36015G25KT 6SM SHRA SCT018 SCT030 BKN120

PGSN 23/10/2018 UTC

TAF PGSN 230535Z 2306/2406 06012KT P6SM VCSH SCT018 SCT120
FM231100 05015G22KT P6SM VCSH SCT017 SCT030 BKN120
FM232200 04017G27KT 6SM SHRA SCT015 BKN030 BKN120
FM240500 02020G30KT 3SM SHRA SCT012 OVC030

PTRO 23/10/2018 UTC

TAF PTRO 230535Z 2306/2406 28011KT P6SM VCSH SCT015 SCT030 BKN120
TEMPO 2306/2310 4SM SHRA BKN015 OVC030

RJOO

23/10/2018 UTC

TAF RJOO 230507Z 2306/2412 07008KT 9999 -RA FEW020 SCT040 TEMPO
2313/2318 4000 SHRA BR BECMG 2318/2321 34012KT

RJOB 23/10/2018 UTC

TAF RJOB 230515Z 2306/2412 12004KT 7000 -SHRA FEW002 SCT015 BKN025
TEMPO 2306/2311 3500 SHRA BR FEW001 SCT004 BKN008 BECMG
2311/2313 2500 -SHRA BR FEW001 SCT004 BKN008 TEMPO
2313/2316 1500 -SHRA BR BCFG FEW000 SCT003 BKN005 BECMG
2316/2318 7000 NSW FEW015 SCT045

RJGG 23/10/2018 UTC

TAF RJGG 230509Z 2306/2412 36008KT 9999 FEW020 BKN040 BECMG
2403/2406 32022KT

RJCC 23/10/2018 UTC

TAF RJCC 230505Z 2306/2412 15015KT 9999 FEW020 SCT035 TEMPO
2306/2308 15017G27KT TEMPO 2312/2318 14022G32KT TEMPO
2318/2321 15025G35KT 4000 SHRA BR BKN008 BKN025 FEW025CB
TEMPO 2321/2403 16025G35KT 3000 TSRA BR BKN005 BKN025
FEW025CB TEMPO 2403/2406 18015G25KT

RJSS 23/10/2018 UTC

TAF AMD RJSS 230923Z 2309/2412 25003KT 9999 FEW030 BKN040 TEMPO
2315/2321 3000 TSRA BR FEW005 BKN008 BKN020 FEW020CB BECMG
2318/2321 31010KT

RJFK 23/10/2018 UTC

TAF AMD RJFK 230813Z 2308/2412 35005KT 9999 FEW020 SCT040

RJAA 23/10/2018 UTC

TAF RJAA 230505Z 2306/2412 34005KT 9999 FEW020 SCT040 TEMPO
2312/2315 3000 SHRA BR FEW002 BKN004 TEMPO 2315/2321 4000
BR FEW002 BKN003 TEMPO 2406/2409 3000 SHRA BR FEW002
BKN004

RJBB 23/10/2018 UTC

TAF RJBB 230505Z 2306/2412 04007KT 9999 -RA FEW008 BKN040 TEMPO
2312/2314 4000 SHRA BR TEMPO 2314/2321 3000 SHRA BR BECMG
2406/2409 01018KT

RJTT 23/10/2018 UTC

TAF RJTT 230505Z 2306/2412 02010KT 9999 FEW015 BKN045 TEMPO
2312/2315 BKN008 TEMPO 2406/2409 4000 -SHRA BR FEW005
BKN008

RJFF 23/10/2018 UTC

TAF RJFF 230509Z 2306/2412 14005KT 9999 FEW005 SCT015 BKN030 BECMG
2307/2309 32005KT BECMG 2313/2315 14004KT BECMG 2400/2403
33010KT

RJFT 23/10/2018 UTC

TAF RJFT 230511Z 2306/2412 32005KT 8000 -SHRA FEW020 SCT030 BKN040
BECMG 2306/2308 05006KT BECMG 2400/2403 33006KT

RJFU 23/10/2018 UTC

TAF RJFU 230516Z 2306/2412 15006KT 9999 FEW010 SCT030 BECMG
2307/2309 35007KT

ROAH 23/10/2018 UTC

TAF ROAH 230508Z 2306/2412 25007KT 9999 FEW020 BKN040 BECMG
2306/2308 35007KT

RKSS 23/10/2018 UTC

TAF RKSS 230500Z 2306/2412 28006KT 6000 FEW010 SCT030
TX19/2306Z TN06/2321Z TX19/2406Z
BECMG 2311/2312 4200 BR
TEMPO 2318/2322 2800
BECMG 2323/2324 16005KT 6000 NSW
BECMG 2401/2402 28006KT

RKSI 23/10/2018 UTC

TAF RKSI 230500Z 2306/2412 23008KT 7000 SCT030
TN10/2321Z TX17/2406Z
BECMG 2307/2308 33010KT
BECMG 2315/2316 05008KT
BECMG 2318/2319 12006KT
BECMG 2402/2403 30007KT

RKSM 23/10/2018 UTC

TAF RKSM 230500Z 2306/2412 18006KT 9000 BR FEW015 BKN030 BECMG
2311/2312 24008KT 9999 NSW SCT030 TN08/2321Z TX17/2406Z

RKPK 23/10/2018 UTC

TAF RKPK 230500Z 2306/2412 30008KT CAVOK
TN10/2321Z TX20/2406Z
BECMG 2306/2307 9999 SCT030

RKPC 23/10/2018 UTC

TAF AMD RKPC 230710Z 2307/2412 27006KT 9999 FEW030
TN14/2320Z TX19/2405Z
BECMG 2309/2310 21005KT
BECMG 2314/2315 35008KT
BECMG 2410/2411 18005KT

Indonesia, Pakistan, Singapore, India, Sri Lanka, United Arab Emirates

The availability of aerodrome forecasts from overseas locations is dependent on the regular international exchange of data. Some locations may at times be absent. If this problem persists, please advise webav@bom.gov.au

 back to top

WIII 23/10/2018 UTC

TAF WIII 230500Z 2306/2412 29006KT 7000 SCT020 TEMPO 2308/2311 4500
-TSRA FEW018CB BKN020 BECMG 2318/2320 18005KT 4000

WSSS 23/10/2018 UTC

TAF AMD WSSS 230800Z 2308/2412 22007KT 9999 FEW018CB SCT020
PROB30 TEMPO 2402/2406 3000 TSRA FEW012CB BKN015

VCBI 23/10/2018 UTC

TAF VCBI 230500Z 2306/2412 26008KT 9999 SCT016 TX30/2307Z
TN24/2400Z PROB40
TEMPO 2309/2317 6000 -TSRA/SHRA FEW012 BKN016 FEW020CB
BECMG 2312/2314 VRB05KT

VECC 23/10/2018 UTC

TAF VECC 230500Z 2306/2412 330/05KT 3500 HZ NSC
BECMG 2313/2315 00000KT 2800 HZ
BECMG 2323/2401 1400 BR
BECMG 2403/2405 3500 HZ

VOMM 23/10/2018 UTC

TAF VOMM 222300Z 2300/2406 00000KT 2500 BR FEW018 SCT100
BECMG 2303/2304 03005KT 4000 HZ BECMG 0306/0307
09010KT 6000 BECMG 2312/2313 03005KT
BECMG 2318/2319 4000 BR BECMG 2321/2322 00000KT 2500 BR
BECMG 2403/2404 03005KT 4000 HZ

VOTV 23/10/2018 UTC

TAF VOTV 230800Z 2309/2318 28010KT 6000 SCT015 SCT080
TEMPO 2312/2315 2500 TSRA/RA SCT008 SCT012 FEW025CB BKN080
BECMG 2317/2318 VRB05KT 4000 HZ SCT015 FEW025CB SCT080

VABB 23/10/2018 UTC

TAF VABB 230500Z 2306/2412 27008KT 3000 FU FEW100 BECMG 2315/2317
17005KT NSC BECMG 2321/2323 04004KT 2000 HZ BECMG 2400/2402
00000KT FEW100 BECMG 2403/2405 04004KT 3000 FU BECMG 2407/2409
26008KT 4000 FU

VAAH 23/10/2018 UTC

TAF VAAH 230500Z 2306/2412 32003KT 4000 FU NSC BECMG 2306/2308
6000 BECMG 2312/2314 03002KT 4000 FUHZ BECMG 2401/2403 00000KT
1500 HZ BECMG 2404/2406 33003KT 4000 FU BECMG 2406/2408 02003KT
6000

VILK 23/10/2018 UTC

TAF VILK 230500Z 2306/2412 24004KT 3000 HZ SCT100 BECMG 2308/2310
27006KT 5000 HZ BECMG 2313/2315 VRB02KT 3000 HZ NSC BECMG
2400/2402 VRB02KT 2000 BR FEW020 SCT100 BECMG 2406/2408 32004KT
5000 HZ FEW100

VANP 23/10/2018 UTC

TAF VANP 230500Z 2306/2412 05005KT 5000 HZ FEW025
BECMG 2312/2314 VRB03KT 3000 HZ NSC
BECMG 2400/2402 2000 BR HZ
BECMG 2404/2406 05005KT 5000 HZ FEW025

VRMM 23/10/2018 UTC

TAF VRMM 230500Z 2306/2412 30010KT 9999 FEW018 TEMPO 2308/2314
FEW019CB

VOHS 23/10/2018 UTC

TAF VOHS 230500Z 2306/2412 14005KT 6000 NSC BECMG 2307/2309 08008KT
6000 SCT015 SCT100 BECMG 2318/2320 07006KT 5000 HZ NSC TEMPO
2323/2402 VRB03KT 3000 BR SCT010 BECMG 2404/2406 07008KT 6000
FEW020 SCT025 TEMPO 2410/2412 FEW030TCU

OPKC 23/10/2018 UTC

TAF OPKC 230330Z 2306/2412 25008G18KT 6000 NSC FM232100 28005KT 4000
FU NSC TEMPO 2401/2405
VRB03KT 3000 FU SCT020 FM240700 25008G18KT 7000 NSC

OBBI 23/10/2018 UTC

TAF OBBI 230500Z 2306/2412 02008KT CAVOK PROB30 TEMPO 2309/2315
34015G30KT 4000 -TSRA FEW035CB BKN090

OMAA 23/10/2018 UTC

TAF OMAA 230500Z 2306/2412 21005KT 8000 NSC
BECMG 2306/2308 31014KT
BECMG 2322/2400 21005KT
PROB30 2402/2404 4000 HZ
BECMG 2406/2408 31012KT

OMDB 23/10/2018 UTC

TAF OMDB 230500Z 2306/2412 21008KT 8000 FEW040
BECMG 2306/2308 29015KT
PROB40 2318/2405 20005KT

OOMS 23/10/2018 UTC

TAF OOMS 230500Z 2306/2412 03012KT 8000 NSC BECMG 2315/2317 21006KT
BECMG 2404/2406 35014KT

OMSJ 23/10/2018 UTC

TAF OMSJ 230500Z 2306/2412 22008KT 8000 FEW040
BECMG 2306/2308 29016KT
BECMG 2318/2320 20005KT
BECMG 2405/2407 28015KT

Malawi, Mauritius, South Africa, Zambia, Zimbabwe

The availability of aerodrome forecasts from overseas locations is dependent on the regular international exchange of data. Some locations may at times be absent. If this problem persists, please advise webav@bom.gov.au

 back to top

FIMP 23/10/2018 UTC

TAF FIMP 230510Z 2306/2412 21010G20KT 9999 SCT018 PROB30
TEMPO 2306/2309 7000 -SHRA FEW010 BKN016 BKN050 BECMG 2306/2308
18015G25KT

FMEE 23/10/2018 UTC

TAF FMEE 230500Z 2306/2412 26015KT 9999 FEW030 BKN050
TEMPO 2306/2308 27015G25KT
BECMG 2308/2310 10015KT
TEMPO 2310/2313 09015G25KT
BECMG 2321/2323 VRB02KT

FLKK

TAF not available.

FWKI 23/10/2018 UTC

TAF FWKI 230400Z 2306/2412 12010KT 9999 SCT015 BECMG 2306/2308 SCT020
BECMG 2310/2312 SCT030 FM231500 09010KT CAVOK BECMG 2407/2409
12012KT 9999 FEW025

FAOR 23/10/2018 UTC

TAF FAOR 230400Z 2306/2412 VRB03KT CAVOK
BECMG 2312/2314 36010KT
TX23/2313Z TN08/2404Z

FVHA

TAF not available.

FAWK 23/10/2018 UTC

TAF FAWK 230900Z 2310/2318 NIL

FABL 23/10/2018 UTC

TAF FABL 230400Z 2306/2406 VRB03KT CAVOK
TX26/2313Z TN10/2404Z

FALE 23/10/2018 UTC

TAF FALE 230400Z 2306/2412 36005KT CAVOK
FM231000 06018KT CAVOK BECMG 2319/2321
01008KT BECMG 2409/2411 09012KT
TX29/2411Z TN13/2403Z

YPCC 23/10/2018 UTC

TAF YPCC 230504Z 2306/2406
13012KT 9999 SCT025
RMK
T 28 27 26 26 Q 1015 1013 1014 1016

United States (includes Hawaii) and Mexican emergency/alternates

The availability of aerodrome forecasts from overseas locations is dependent on the regular international exchange of data. Some locations may at times be absent. If this problem persists, please advise webav@bom.gov.au

 back to top

PHNL 23/10/2018 UTC

TAF PHNL 230901Z 2309/2412 04008KT P6SM FEW025 SCT050
FM232100 05012G20KT P6SM FEW025 SCT050
FM240500 05008KT P6SM FEW025 SCT050

PHLI 23/10/2018 UTC

TAF PHLI 230541Z 2306/2406 04012KT P6SM VCSH SCT025 SCT040
TEMPO 2306/2309 BKN025

PHOG 23/10/2018 UTC

TAF PHOG 230541Z 2306/2406 05010KT P6SM FEW025 SCT040
FM232000 05015G22KT P6SM FEW025 SCT040
FM240500 05012KT P6SM FEW025 SCT040
AMD LTD TO VIS AND WIND 2309/2316

PHTO 23/10/2018 UTC

TAF PHTO 230541Z 2306/2406 24005KT P6SM VCSH SCT025 BKN050
FM232000 05008KT P6SM SCT025 BKN050
FM240500 VRB03KT P6SM VCSH SCT025 BKN050

PKMJ 23/10/2018 UTC

TAF PKMJ 230535Z 2306/2406 08006KT P6SM VCSH SCT015 SCT050 BKN120

KLAX 23/10/2018 UTC

TAF KLAX 230748Z 2308/2412 19006KT P6SM SCT010
FM230900 19006KT P6SM OVC009
FM231800 23006KT P6SM SCT012
FM232000 26012KT P6SM SKC
FM240400 25006KT P6SM SKC
FM240600 VRB03KT P6SM OVC007

KONT 23/10/2018 UTC

TAF KONT 230520Z 2306/2412 VRB05KT P6SM SCT015 OVC250
FM231200 VRB03KT 2SM BR BKN005
FM231600 VRB03KT 3SM BR SCT005
FM231900 24006KT 6SM HZ SCT250
FM232100 26010KT P6SM FEW250

KPMD 23/10/2018 UTC

TAF KPMD 230530Z 2306/2406 VRB03KT P6SM SKC
FM232000 04006KT P6SM SKC
FM240000 24008KT P6SM SKC
FM240500 VRB03KT P6SM SKC

KSAN 23/10/2018 UTC

TAF KSAN 230859Z 2309/2412 VRB03KT P6SM SCT020 BKN200
TEMPO 2310/2313 BKN018
FM231300 VRB04KT P6SM BKN020
FM231700 30010KT P6SM SCT250
FM240300 31006KT P6SM FEW250

KLAS 23/10/2018 UTC

TAF KLAS 230838Z 2309/2412 26006KT P6SM SCT250
FM231500 VRB04KT P6SM FEW250
FM231800 06006KT P6SM FEW110
FM240200 21006KT P6SM BKN250

KOAK 23/10/2018 UTC

TAF KOAK 230523Z 2306/2412 28010KT P6SM FEW015
TEMPO 2307/2311 BKN011
FM231100 VRB03KT P6SM OVC011
FM231800 28008KT P6SM SCT014
FM232100 29012KT P6SM FEW015
FM240300 29008KT P6SM SCT012
FM240900 29004KT P6SM BKN012

KSFO 23/10/2018 UTC

TAF KSFO 230853Z 2309/2412 26007KT P6SM BKN015
FM231800 28005KT P6SM FEW014
FM232100 28014KT P6SM FEW015
FM240400 28010KT P6SM FEW012
FM240900 28008KT P6SM SCT012

KSMF 23/10/2018 UTC

TAF KSMF 230520Z 2306/2406 17007KT P6SM SKC
FM231200 VRB03KT 6SM BR FEW004
FM231500 15003KT P6SM SKC
FM240000 18006KT P6SM SKC

KSCK 23/10/2018 UTC

TAF KSCK 230520Z 2306/2406 32008KT P6SM SKC

KFAT 23/10/2018 UTC

TAF KFAT 230520Z 2306/2406 VRB04KT 6SM HZ SKC

KJFK 23/10/2018 UTC

TAF AMD KJFK 230841Z 2309/2412 20006KT P6SM BKN100
FM231100 18008KT P6SM BKN100
FM231500 20011KT P6SM BKN100
FM231700 22012KT P6SM BKN250
FM231900 24014KT P6SM BKN250
FM232200 26015G23KT P6SM VCSH BKN080
FM240000 28017G25KT P6SM SCT250
FM240300 30016G23KT P6SM FEW250

KPHL 23/10/2018 UTC

TAF KPHL 230903Z 2309/2412 17005KT P6SM OVC080
FM231100 21005KT P6SM SCT100
FM231500 24010KT P6SM SCT200
FM231800 26012G20KT P6SM BKN070
FM232300 29010G18KT P6SM SCT060
FM240300 30010KT P6SM SCT250

KPIT 23/10/2018 UTC

TAF KPIT 230921Z 2309/2412 24005KT P6SM SCT100
FM231500 28015G25KT P6SM BKN035
FM232300 31010KT P6SM BKN035

KDEN 23/10/2018 UTC

TAF KDEN 230854Z 2309/2412 22010KT P6SM FEW110 BKN140
FM231200 25006KT P6SM SCT070 BKN140
FM231600 18007KT P6SM SCT080 SCT250
FM231800 16015G22KT P6SM SCT080 BKN250
FM240200 19011KT P6SM VCSH OVC060

KMCI 23/10/2018 UTC

TAF KMCI 230520Z 2306/2406 04004KT P6SM SKC
FM231500 07010KT P6SM SKC

KDFW 23/10/2018 UTC

TAF KDFW 230908Z 2309/2412 09003KT P6SM BKN100
TEMPO 2309/2312 -RA OVC090
FM231500 06007KT P6SM BKN100

KAUS 23/10/2018 UTC

TAF KAUS 230530Z 2306/2412 01005KT P6SM -RA SCT100 OVC200
FM231100 01005KT 6SM -RA BR SCT009 OVC015
FM231800 02007KT P6SM SCT015 OVC035
FM240500 02005KT P6SM OVC015

KELP 23/10/2018 UTC

TAF KELP 230543Z 2306/2406 VRB05KT P6SM FEW070 SCT250
FM231600 08007KT P6SM BKN050
TEMPO 2318/2322 5SM -TSRA OVC040CB
FM232200 08010KT P6SM VCTS BKN040CB OVC070

KIAH 23/10/2018 UTC

TAF KIAH 230922Z 2309/2412 36008KT P6SM -RA SCT025 BKN060 OVC090
TEMPO 2310/2314 -RA BKN025
FM231500 03008KT P6SM -RA SCT015 BKN030
FM231800 02009KT P6SM SCT035 BKN150
FM240000 04006KT P6SM FEW040 BKN250
FM240800 02006KT P6SM SCT012 BKN025

KSAT 23/10/2018 UTC

TAF KSAT 230923Z 2309/2412 35004KT P6SM -RA FEW070 OVC100
FM231100 34004KT P6SM -RA OVC015
FM231500 02005KT 5SM -RA BR OVC008
FM232200 03008KT P6SM SCT009 OVC015

KTUS 23/10/2018 UTC

TAF KTUS 230520Z 2306/2406 13006KT P6SM SCT080 BKN200
FM231900 15009KT P6SM VCTS SCT060CB BKN120
FM232100 33008KT P6SM VCTS SCT060CB OVC120
FM240200 25008KT P6SM SCT070 BKN200

MMCU 23/10/2018 UTC

TAF COR MMCU 230619Z 2306/2406 13005KT P6SM BKN025 BKN250
TEMPO 2310/2314 3SM BR BKN010
FM231600 13010KT P6SM SCT020 BKN080
FM232100 16010KT P6SM BKN020 OVC080
TEMPO 2321/2401 5SM RA
FM240100 13008KT 5SM RA BKN020 OVC080

MMHO 23/10/2018 UTC

TAF COR MMHO 230619Z 2306/2406 00000KT P6SM SCT100 BKN250
FM231800 24010KT P6SM SCT100 SCT250
FM240200 23005KT P6SM SCT100

MMLT 23/10/2018 UTC

TAF MMLT 230456Z 2306/2406 00000KT P6SM SKC
FM231800 04010KT P6SM SCT040 SCT100 BKN200
FM240400 03005KT P6SM BKN200

MMSD 23/10/2018 UTC

TAF MMSD 230456Z 2306/2406 32010KT P6SM SCT150 BKN240
TEMPO 2312/2316 5SM -RA BKN030CB
FM231800 30020G30KT P6SM SCT030 BKN150 BKN250
FM240400 33010KT 5SM HZ SCT030 BKN100

Papua New Guinea, Southwest Pacific

The availability of aerodrome forecasts from overseas locations is dependent on the regular international exchange of data. Some locations may at times be absent. If this problem persists, please advise webav@bom.gov.au

 back to top

NWWW 23/10/2018 UTC

TAF NWWW 230500Z 2306/2406 04008KT 9999 BKN055 BECMG 2308/2310 VRB02KT BECMG 2320/2322 09010KT PROB30 TEMPO 2400/2406 SHRA FEW020TCU

NFFN 23/10/2018 UTC

TAF NFFN 230501Z 2306/2406
09005KT 9999 SCT025
BECMG 2322/2324 27011KT
TEMPO 2401/2406 3000 TSRA BKN015 FEW018CB
BECMG 2404/2406 09005KT

NFNA 23/10/2018 UTC

TAF NFNA 230511Z 2306/2406
12012KT 9999 -SHRA BKN018 BKN045
PROB30 TEMPO 2306/2312 5000 SHRA BKN015
PROB40 TEMPO 2315/2406 11015G25KT 3000 SHRA BKN015

NFTF 23/10/2018 UTC

TAF NFTF 230506Z 2306/2406
11012KT 9999 SCT016 SCT100
PROB30 TEMPO 2321/2406 11015G25KT

NSTU 23/10/2018 UTC

TAF NSTU 230541Z 2306/2406 VRB03KT P6SM VCSH SCT015 BKN040 BKN100
FM232000 07005KT P6SM VCSH SCT015 BKN040 BKN100

NVVV 23/10/2018 UTC

TAF NVVV 230430Z 2306/2406 09014KT SCT020 BKN040
INTER 2306/2312 7000 SHRA FEW010 BKN018 OVC040

NCRG 23/10/2018 UTC

TAF NCRG 230503Z 2306/2406
10009KT 9999 -SHRA SCT020 BKN100

NTAA 23/10/2018 UTC

TAF NTAA 230500Z 2306/2412 VRB05KT 9999 FEW026 SCT050 BECMG 2318/2320
04015KT

NTTG

TAF not available.

NTTO

TAF not available.

NSFA 23/10/2018 UTC

TAF NSFA 230506Z 2306/2406
04008KT 9999 -SHRA FEW016 SCT035 BKN050
PROB40 TEMPO 2306/2315 3000 TSRA BKN015 FEW017CB

ANYN 23/10/2018 UTC

TAF ANYN 230303Z 2306/2406 09008KT 9999 SCT018 SCT140
T 29 28 26 25
Q 1008 1010 1009 1007

AGGH 23/10/2018 UTC

TAF AGGH 230515Z 2306/2606 VRB03KT 9999 FEW016 SCT100

T 29 27 26 25 Q 1005 1007 1007 1005

AGGM 23/10/2018 UTC

TAF AGGM 230515Z 2306/2606 VRB03KT 9999 FEW016 BKN100

Q 1006 1008 1008 1006

AGGN 23/10/2018 UTC

TAF AGGN 230515Z 2306/2606 VRB03KT 9999 FEW016 BKN100

Q 1006 1008 1008 1006

AYPY 23/10/2018 UTC

TAF AMD AYPY 230201Z 2306/2406 14008KT 9999 SCT018 BKN140
FM2310000 VRB03KT 9999 SCT040

AYNZ

TAF not available.

AYMD

TAF not available.

AYMH

TAF not available.

AYTA

TAF not available.

PKMJ 23/10/2018 UTC

TAF PKMJ 230535Z 2306/2406 08006KT P6SM VCSH SCT015 SCT050 BKN120

NGTA 23/10/2018 UTC

TAF NGTA 230511Z 2306/2406
17007KT 9999 FEW020

PTRO 23/10/2018 UTC

TAF PTRO 230535Z 2306/2406 28011KT P6SM VCSH SCT015 SCT030 BKN120
TEMPO 2306/2310 4SM SHRA BKN015 OVC030

YLHI 23/10/2018 UTC

TAF YLHI 230522Z 2306/2406
05014KT 9999 -SHRA SCT010 BKN020
FM231400 05005KT 9999 -SHRA SCT010 BKN020
TEMPO 2306/2312 3000 SHRA BKN010
INTER 2312/2324 4000 SHRA BKN008
RMK
T 21 19 19 19 Q 1016 1017 1016 1015

YSNF 23/10/2018 UTC

TAF AMD YSNF 230511Z 2305/2406
07014KT 9999 SCT015 SCT020
FM240000 06014KT 9999 SCT020
TEMPO 2305/2324 9999 BKN012
RMK
T 20 18 18 17 Q 1019 1020 1021 1020

Indonesia, Timor Leste, Papua New Guinea

The availability of aerodrome forecasts from overseas locations is dependent on the regular international exchange of data. Some locations may at times be absent. If this problem persists, please advise webav@bom.gov.au

 back to top

WAAA 23/10/2018 UTC

TAF WAAA 230500Z 2306/2412 25010KT 9000 SCT019
TEMPO 2307/2310 5000 -TSRA FEW017CB SCT018
BECMG 2311/2313 10004KT 8000 FEW019
BECMG 2321/2323 18005KT 9999

WAMM 23/10/2018 UTC

TAF WAMM 230500Z 2306/2412 27008KT 9999 FEW024
BECMG 2310/2312 VRB02KT
BECMG 2400/2402 28008KT SCT022

WAMP

TAF not available.

WAJJ 23/10/2018 UTC

TAF WAJJ 230500Z 2306/2406 15007KT 9999 SCT012
PROB40 TEMPO 2310/2314 36008KT 7000 -RA FEW012CB SCT013
BECMG 2314/2315 00000KT
BECMG 2322/2324 29010KT

WAPP 23/10/2018 UTC

TAF WAPP 230500Z 2306/2406 22006KT 9999 SCT019

WABB 23/10/2018 UTC

TAF WABB 230500Z 2306/2412 28007KT 9000 SCT018
TEMPO 2306/2310 RA BKN018
BECMG 2310/2312 00000KT

WPDL 23/10/2018 UTC

TAF WPDL 230646Z 2308/2320
26006KT 9999 FEW050
FM231200 14005KT CAVOK
INTER 2308/2310 3000 SHRA SCT010 SCT030
RMK
T 30 29 28 27 Q 1010 1012 1013 1011

WATT 23/10/2018 UTC

TAF WATT 230500Z 2306/2406 33013KT 9999 SCT018
BECMG 2310/2312 30003KT
BECMG 2400/2402 31012KT

WIII 23/10/2018 UTC

TAF WIII 230500Z 2306/2412 29006KT 7000 SCT020 TEMPO 2308/2311 4500
-TSRA FEW018CB BKN020 BECMG 2318/2320 18005KT 4000

WIHH 23/10/2018 UTC

TAF WIHH 230500Z 2306/2406 06008KT 6000 SCT020 TEMPO 2309/2312 32010KT 4000 -TSRA
FEW016CB BKN017 BECMG 2313/2315 22005KT 5000 HZ SCT018

WIMM 23/10/2018 UTC

TAF WIMM 230500Z 2306/2406 04008KT 8000 SCT016
TEMPO 2306/2309 -RA
BECMG 2312/2314 VRB04KT 4500 HZ

WARR 23/10/2018 UTC

TAF WARR 230500Z 2306/2406 10010KT 9999 FEW020
BECMG 2315/2317 26005KT 4000 HZ
BECMG 2322/2400 VRB03KT 7000 NSW
BECMG 2401/2403 09010KT 9999

WADD 23/10/2018 UTC

TAF WADD 230500Z 2306/2406 23010KT 9999 SCT017
BECMG 2310/2312 15010KT
BECMG 2317/2319 VRB05KT

AYPY 23/10/2018 UTC

TAF AMD AYPY 230201Z 2306/2406 14008KT 9999 SCT018 BKN140
FM2310000 VRB03KT 9999 SCT040

AYNZ

TAF not available.

AYMH

TAF not available.

AYMD

TAF not available.

AYHK

TAF not available.

AYTK

TAF not available.

AYVN

TAF not available.

AYWK

TAF not available.

AYGA

TAF not available.

AYDU

TAF not available.

AYMS

TAF not available.

AYRB

TAF not available.

AYTB

TAF not available.

AYKI

TAF not available.

AYKT

TAF not available.

AYBK

TAF not available.

AYKM

TAF not available.

AYKY

TAF not available.

AYMO

TAF not available.

AYKV

TAF not available.

Accessing this Service

By entering this site, you acknowledge that this information is produced solely for use by the aviation industry, and you are aware that any information for the purposes of flight planning should be obtained from Airservices Australia.